Time;durP1;ratioP1;P1;durP2;ratioP2;P2;SDS_P1;SDS_P2;PMS_P1;PMS_P2;Temp;Humidity;BMP_temperature;BMP_pressure;BME280_temperature;BME280_humidity;BME280_pressure;Samples;Min_cycle;Max_cycle;Signal;HPM_P1;HPM_P2
2022/03/08 00:01:32;;;;;;;34.00;19.33;;;-4.10;99.90;;;;;;4996344;28;20113;-79
2022/03/08 00:03:58;;;;;;;28.07;19.53;;;-4.10;99.90;;;;;;4996827;28;20045;-79
2022/03/08 00:06:24;;;;;;;29.83;19.87;;;-4.10;99.90;;;;;;4997448;28;20030;-79
2022/03/08 00:08:49;;;;;;;30.03;18.70;;;-4.10;99.90;;;;;;4996456;28;20093;-79
2022/03/08 00:11:16;;;;;;;36.93;20.73;;;-4.20;99.90;;;;;;4997442;28;20030;-79
2022/03/08 00:13:42;;;;;;;31.30;20.27;;;-4.20;99.90;;;;;;4996375;28;20388;-79
2022/03/08 00:16:08;;;;;;;27.97;18.00;;;-4.20;99.90;;;;;;4995459;28;20089;-79
2022/03/08 00:18:33;;;;;;;30.53;18.07;;;-4.20;99.90;;;;;;4977715;28;20070;-79
2022/03/08 00:20:59;;;;;;;29.27;18.27;;;-4.20;99.90;;;;;;4995312;28;20434;-79
2022/03/08 00:23:25;;;;;;;26.87;17.60;;;-4.20;99.90;;;;;;4995842;28;20161;-79
2022/03/08 00:25:51;;;;;;;28.23;18.63;;;-4.20;99.90;;;;;;4995417;28;20023;-79
2022/03/08 00:28:16;;;;;;;33.17;19.30;;;-4.30;99.90;;;;;;4996183;28;20030;-79
2022/03/08 00:30:42;;;;;;;27.33;18.13;;;-4.30;99.90;;;;;;4979413;28;20027;-79
2022/03/08 00:33:07;;;;;;;26.30;17.63;;;-4.30;99.90;;;;;;4978903;28;20037;-79
2022/03/08 00:35:33;;;;;;;31.70;18.53;;;-4.30;99.90;;;;;;4995690;28;20030;-79
2022/03/08 00:37:59;;;;;;;27.17;18.97;;;-4.20;99.90;;;;;;4995225;28;20036;-79
2022/03/08 00:40:25;;;;;;;33.00;19.10;;;-4.30;99.90;;;;;;4994939;28;20044;-79
2022/03/08 00:42:52;;;;;;;29.53;18.87;;;-4.30;99.90;;;;;;4995041;28;20030;-79
2022/03/08 00:45:18;;;;;;;28.73;18.27;;;-4.30;99.90;;;;;;4994712;28;20054;-79
2022/03/08 00:47:44;;;;;;;28.97;18.70;;;-4.40;99.90;;;;;;4995249;28;20089;-79
2022/03/08 00:50:13;;;;;;;30.73;19.27;;;-4.40;99.90;;;;;;4978060;28;20513;-79
2022/03/08 00:52:39;;;;;;;27.03;17.53;;;-4.40;99.90;;;;;;4995608;28;20041;-79
2022/03/08 00:55:06;;;;;;;32.03;18.10;;;-4.40;99.90;;;;;;4983415;28;20030;-80
2022/03/08 00:57:32;;;;;;;30.87;18.77;;;-4.40;99.90;;;;;;4977790;28;20459;-79
2022/03/08 00:59:58;;;;;;;29.60;17.80;;;-4.40;99.90;;;;;;4995959;28;20077;-79
2022/03/08 01:02:23;;;;;;;28.63;17.60;;;-4.40;99.90;;;;;;4977438;28;20022;-79
2022/03/08 01:04:49;;;;;;;30.40;18.40;;;-4.40;99.90;;;;;;4996366;28;20057;-79
2022/03/08 01:07:16;;;;;;;26.97;17.37;;;-4.40;99.90;;;;;;4995701;28;20050;-79
2022/03/08 01:09:42;;;;;;;24.73;17.27;;;-4.40;99.90;;;;;;4995814;28;20029;-79
2022/03/08 01:12:08;;;;;;;27.57;16.63;;;-4.40;99.90;;;;;;4995841;28;20026;-79
2022/03/08 01:14:34;;;;;;;26.63;17.03;;;-4.40;99.90;;;;;;4995240;28;20030;-79
2022/03/08 01:16:59;;;;;;;23.97;16.97;;;-4.40;99.90;;;;;;4994868;28;20041;-79
2022/03/08 01:19:25;;;;;;;26.93;17.10;;;-4.40;99.90;;;;;;4993270;28;20038;-79
2022/03/08 01:21:51;;;;;;;26.67;17.47;;;-4.40;99.90;;;;;;4994979;28;20057;-79
2022/03/08 01:24:16;;;;;;;27.37;16.83;;;-4.40;99.90;;;;;;4995957;28;20032;-79
2022/03/08 01:26:42;;;;;;;26.03;16.83;;;-4.40;99.90;;;;;;4995629;28;20053;-79
2022/03/08 01:29:08;;;;;;;27.47;17.33;;;-4.40;99.90;;;;;;4995864;28;20023;-79
2022/03/08 01:31:33;;;;;;;30.63;18.23;;;-4.40;99.90;;;;;;4995276;28;20040;-79
2022/03/08 01:33:59;;;;;;;29.27;18.30;;;-4.40;99.90;;;;;;4994649;28;20034;-79
2022/03/08 01:36:25;;;;;;;32.60;18.30;;;-4.50;99.90;;;;;;4992316;28;20019;-79
2022/03/08 01:38:51;;;;;;;30.20;17.77;;;-4.50;99.90;;;;;;4991800;28;20109;-79
2022/03/08 01:41:17;;;;;;;30.73;17.77;;;-4.50;99.90;;;;;;4991535;28;20109;-79
2022/03/08 01:43:43;;;;;;;28.97;17.77;;;-4.40;99.90;;;;;;4991087;28;20335;-79
2022/03/08 01:46:09;;;;;;;27.10;17.13;;;-4.50;99.90;;;;;;4991312;28;20033;-79
2022/03/08 01:48:34;;;;;;;30.23;17.60;;;-4.40;99.90;;;;;;4991505;28;20531;-79
2022/03/08 01:51:00;;;;;;;30.13;17.80;;;-4.40;99.90;;;;;;4991819;28;20034;-79
2022/03/08 01:53:25;;;;;;;26.13;16.50;;;-4.50;99.90;;;;;;4991371;28;20384;-80
2022/03/08 01:55:51;;;;;;;27.83;18.37;;;-4.50;99.90;;;;;;4991645;28;20026;-79
2022/03/08 01:58:17;;;;;;;26.47;16.83;;;-4.50;99.90;;;;;;4991517;28;20494;-79
2022/03/08 02:00:44;;;;;;;31.87;17.80;;;-4.50;99.90;;;;;;4973671;28;20037;-80
2022/03/08 02:03:09;;;;;;;33.80;20.60;;;-4.50;99.90;;;;;;4991086;28;20034;-79
2022/03/08 02:05:35;;;;;;;29.07;18.80;;;-4.60;99.90;;;;;;4991199;28;20041;-79
2022/03/08 02:08:04;;;;;;;27.23;17.57;;;-4.60;99.90;;;;;;4991191;28;20124;-79
2022/03/08 02:10:29;;;;;;;27.90;17.97;;;-4.60;99.90;;;;;;4991267;28;20026;-79
2022/03/08 02:12:55;;;;;;;31.17;18.97;;;-4.60;99.90;;;;;;4990777;28;20352;-79
2022/03/08 02:15:23;;;;;;;28.37;17.70;;;-4.60;99.90;;;;;;4991308;28;20132;-79
2022/03/08 02:17:49;;;;;;;30.60;18.60;;;-4.70;99.90;;;;;;4990539;28;20057;-79
2022/03/08 02:20:16;;;;;;;26.90;18.17;;;-4.70;99.90;;;;;;4990854;28;20116;-79
2022/03/08 02:22:44;;;;;;;34.03;19.17;;;-4.70;99.90;;;;;;4973376;28;20045;-79
2022/03/08 02:25:10;;;;;;;31.63;19.37;;;-4.80;99.90;;;;;;4989984;28;20026;-79
2022/03/08 02:27:41;;;;;;;32.20;19.37;;;-4.90;99.90;;;;;;4990773;28;20369;-79
2022/03/08 02:30:09;;;;;;;30.17;18.07;;;-4.90;99.90;;;;;;4991122;28;20034;-79
2022/03/08 02:32:34;;;;;;;33.67;18.73;;;-4.90;99.90;;;;;;4989571;28;20391;-79
2022/03/08 02:35:32;;;;;;;34.60;19.30;;;-5.00;99.90;;;;;;4991036;28;20030;-79
2022/03/08 02:38:04;;;;;;;29.00;18.80;;;-5.00;99.90;;;;;;4987599;28;20065;-79
2022/03/08 02:40:35;;;;;;;30.80;18.40;;;-5.10;99.90;;;;;;4990131;28;20092;-79
2022/03/08 02:43:01;;;;;;;31.97;19.53;;;-5.10;99.90;;;;;;4990851;28;20387;-79
2022/03/08 02:45:27;;;;;;;32.37;18.30;;;-5.10;99.90;;;;;;4969508;28;20042;-80
2022/03/08 02:47:53;;;;;;;33.53;19.47;;;-5.10;99.90;;;;;;4986799;28;20026;-79
2022/03/08 02:50:20;;;;;;;34.30;18.80;;;-5.20;99.90;;;;;;4980560;28;20054;-79
2022/03/08 02:52:48;;;;;;;32.03;18.37;;;-5.20;99.90;;;;;;4953927;28;20034;-79
2022/03/08 02:55:14;;;;;;;30.73;18.97;;;-5.20;99.90;;;;;;4971464;28;20034;-79
2022/03/08 02:57:41;;;;;;;31.50;18.93;;;-5.20;99.90;;;;;;4953993;28;20408;-79
2022/03/08 03:00:09;;;;;;;34.50;19.13;;;-5.30;99.90;;;;;;4971321;28;20037;-79
2022/03/08 03:02:35;;;;;;;31.60;18.77;;;-5.30;99.90;;;;;;4971183;28;20476;-79
2022/03/08 03:05:01;;;;;;;31.53;18.53;;;-5.30;99.90;;;;;;4971298;28;20025;-79
2022/03/08 03:07:26;;;;;;;39.40;19.03;;;-5.30;99.90;;;;;;4971678;28;20053;-79
2022/03/08 03:09:52;;;;;;;31.80;18.60;;;-5.30;99.90;;;;;;4981745;28;20128;-79
2022/03/08 03:12:18;;;;;;;33.03;20.60;;;-5.30;99.90;;;;;;4973030;28;20034;-79
2022/03/08 03:14:44;;;;;;;34.83;19.43;;;-5.30;99.90;;;;;;4990576;28;20036;-79
2022/03/08 03:17:10;;;;;;;31.43;18.83;;;-5.40;99.90;;;;;;4990410;28;20038;-79
2022/03/08 03:19:36;;;;;;;34.43;19.80;;;-5.30;99.90;;;;;;4990567;28;20054;-79
2022/03/08 03:22:03;;;;;;;31.50;18.93;;;-5.30;99.90;;;;;;4990108;28;20046;-79
2022/03/08 03:24:29;;;;;;;31.77;19.20;;;-5.40;99.90;;;;;;4972736;28;20027;-79
2022/03/08 03:26:54;;;;;;;31.10;19.17;;;-5.40;99.90;;;;;;4993337;28;20364;-79
2022/03/08 03:29:20;;;;;;;31.13;18.90;;;-5.40;99.90;;;;;;4994510;28;20106;-79
2022/03/08 03:31:46;;;;;;;30.80;19.10;;;-5.40;99.90;;;;;;4993806;28;20038;-79
2022/03/08 03:34:11;;;;;;;35.33;19.57;;;-5.50;99.90;;;;;;4993894;28;20042;-79
2022/03/08 03:36:37;;;;;;;35.23;19.30;;;-5.50;99.90;;;;;;4976357;28;20029;-79
2022/03/08 03:39:06;;;;;;;33.40;19.50;;;-5.60;99.90;;;;;;4994086;28;20467;-79
2022/03/08 03:41:32;;;;;;;39.57;19.37;;;-5.60;99.90;;;;;;4993904;28;20058;-79
2022/03/08 03:43:57;;;;;;;35.27;20.17;;;-5.70;99.90;;;;;;4992439;28;20100;-79
2022/03/08 03:46:23;;;;;;;33.93;21.07;;;-5.70;99.90;;;;;;4992661;28;20102;-79
2022/03/08 03:48:51;;;;;;;36.30;20.30;;;-5.70;99.90;;;;;;4993758;28;20094;-79
2022/03/08 03:51:16;;;;;;;36.20;21.83;;;-5.80;99.90;;;;;;4993770;28;20026;-79
2022/03/08 03:53:44;;;;;;;33.33;20.47;;;-5.80;99.90;;;;;;4976260;28;20026;-79
2022/03/08 03:56:09;;;;;;;32.77;19.90;;;-5.80;99.90;;;;;;4993519;28;20483;-79
2022/03/08 03:58:36;;;;;;;35.57;20.20;;;-5.80;99.90;;;;;;4993485;28;20150;-79
2022/03/08 04:01:01;;;;;;;35.80;20.87;;;-5.80;99.90;;;;;;4993777;28;20034;-79
2022/03/08 04:03:27;;;;;;;34.13;20.53;;;-5.90;99.90;;;;;;4993737;28;20042;-79
2022/03/08 04:05:52;;;;;;;40.40;21.00;;;-5.90;99.90;;;;;;4993749;28;20736;-79
2022/03/08 04:08:20;;;;;;;33.83;20.47;;;-5.90;99.90;;;;;;4992985;28;20050;-79
2022/03/08 04:10:48;;;;;;;39.23;20.67;;;-5.90;99.90;;;;;;4992053;28;20074;-79
2022/03/08 04:13:14;;;;;;;36.47;20.10;;;-5.90;99.90;;;;;;4993414;28;20030;-79
2022/03/08 04:15:40;;;;;;;37.33;19.27;;;-5.90;99.90;;;;;;4992039;28;20085;-79
2022/03/08 04:18:06;;;;;;;35.97;21.53;;;-6.00;99.90;;;;;;4992989;28;20423;-79
2022/03/08 04:20:32;;;;;;;32.93;20.77;;;-6.00;99.90;;;;;;4993059;28;20030;-79
2022/03/08 04:22:57;;;;;;;36.43;21.23;;;-6.00;99.90;;;;;;4992720;28;20102;-79
2022/03/08 04:25:23;;;;;;;37.17;21.60;;;-6.00;99.90;;;;;;4975567;28;20182;-79
2022/03/08 04:27:49;;;;;;;34.17;20.90;;;-6.00;99.90;;;;;;4993004;28;20030;-79
2022/03/08 04:30:14;;;;;;;35.60;20.10;;;-6.00;99.90;;;;;;4993171;28;20022;-79
2022/03/08 04:32:40;;;;;;;37.80;21.43;;;-6.00;99.90;;;;;;4992959;28;20023;-79
2022/03/08 04:35:06;;;;;;;39.20;22.00;;;-6.00;99.90;;;;;;4992838;28;20026;-79
2022/03/08 04:37:32;;;;;;;41.97;22.87;;;-6.00;99.90;;;;;;4992624;28;20109;-79
2022/03/08 04:39:57;;;;;;;35.47;21.33;;;-6.00;99.90;;;;;;4992975;28;20113;-79
2022/03/08 04:42:23;;;;;;;36.30;22.33;;;-6.00;99.90;;;;;;4992854;28;20168;-79
2022/03/08 04:44:49;;;;;;;38.80;23.63;;;-6.00;99.90;;;;;;4992509;28;20034;-79
2022/03/08 04:47:14;;;;;;;36.77;21.47;;;-6.00;99.90;;;;;;4992502;28;20058;-80
2022/03/08 04:49:40;;;;;;;38.93;21.60;;;-6.00;99.90;;;;;;4992875;28;20027;-80
2022/03/08 04:52:05;;;;;;;37.50;20.13;;;-6.00;99.90;;;;;;4992611;28;20208;-80
2022/03/08 04:54:31;;;;;;;33.40;20.63;;;-6.00;99.90;;;;;;4992978;28;20146;-80
2022/03/08 04:56:57;;;;;;;35.80;21.20;;;-6.00;99.90;;;;;;4974930;28;20034;-80
2022/03/08 04:59:22;;;;;;;38.27;21.20;;;-6.10;99.90;;;;;;4992865;28;20456;-80
2022/03/08 05:01:49;;;;;;;39.70;20.93;;;-6.10;99.90;;;;;;4992448;28;20030;-80
2022/03/08 05:04:15;;;;;;;38.93;21.37;;;-6.10;99.90;;;;;;4993004;28;20018;-80
2022/03/08 05:06:41;;;;;;;38.07;20.67;;;-6.10;99.90;;;;;;4992328;28;20019;-80
2022/03/08 05:09:07;;;;;;;37.03;21.03;;;-6.10;99.90;;;;;;4992516;28;20112;-80
2022/03/08 05:11:32;;;;;;;35.57;19.50;;;-6.10;99.90;;;;;;4994510;28;20386;-76
2022/03/08 05:13:58;;;;;;;32.70;20.67;;;-6.10;99.90;;;;;;4993861;28;20045;-76
2022/03/08 05:16:23;;;;;;;37.43;21.03;;;-6.10;99.90;;;;;;4977007;28;20498;-76
2022/03/08 05:18:49;;;;;;;36.30;20.77;;;-6.10;99.90;;;;;;4977011;28;20533;-76
2022/03/08 05:21:15;;;;;;;36.80;21.70;;;-6.10;99.90;;;;;;4994475;28;20542;-76
2022/03/08 05:23:40;;;;;;;34.20;21.10;;;-6.20;99.90;;;;;;4994257;28;20073;-76
2022/03/08 05:26:06;;;;;;;37.83;21.00;;;-6.20;99.90;;;;;;4988820;28;20023;-76
2022/03/08 05:28:32;;;;;;;33.10;19.23;;;-6.20;99.90;;;;;;4991529;28;20093;-76
2022/03/08 05:30:58;;;;;;;33.93;19.57;;;-6.20;99.90;;;;;;4994208;28;20038;-75
2022/03/08 05:33:23;;;;;;;38.87;20.13;;;-6.20;99.90;;;;;;4991502;28;20081;-75
2022/03/08 05:35:50;;;;;;;37.87;20.03;;;-6.20;99.90;;;;;;4976816;28;20042;-75
2022/03/08 05:38:16;;;;;;;36.40;20.73;;;-6.20;99.90;;;;;;4990717;28;20022;-76
2022/03/08 05:40:42;;;;;;;38.73;20.13;;;-6.20;99.90;;;;;;4981152;28;20173;-75
2022/03/08 05:43:07;;;;;;;32.97;19.53;;;-6.20;99.90;;;;;;4988442;28;20034;-75
2022/03/08 05:45:33;;;;;;;34.13;19.03;;;-6.20;99.90;;;;;;4993762;28;20026;-74
2022/03/08 05:47:59;;;;;;;35.80;21.00;;;-6.30;99.90;;;;;;4976515;28;20460;-74
2022/03/08 05:50:24;;;;;;;39.23;21.23;;;-6.20;99.90;;;;;;4973631;28;20157;-74
2022/03/08 05:52:50;;;;;;;42.97;24.00;;;-6.30;99.90;;;;;;4986149;28;20023;-74
2022/03/08 05:55:16;;;;;;;62.80;33.87;;;-6.20;99.90;;;;;;4987634;28;20034;-74
2022/03/08 05:57:41;;;;;;;39.63;23.77;;;-6.30;99.90;;;;;;4985819;28;20053;-74
2022/03/08 06:00:07;;;;;;;37.13;21.63;;;-6.20;99.90;;;;;;4990112;28;20037;-79
2022/03/08 06:02:33;;;;;;;37.20;21.10;;;-6.20;99.90;;;;;;4991136;28;20081;-78
2022/03/08 06:04:59;;;;;;;38.70;19.77;;;-6.10;99.90;;;;;;4990139;28;20285;-80
2022/03/08 06:07:24;;;;;;;36.57;18.10;;;-6.10;99.90;;;;;;4991117;28;20058;-79
2022/03/08 06:09:50;;;;;;;29.40;17.47;;;-6.00;99.90;;;;;;4969036;28;20015;-87
2022/03/08 06:12:15;;;;;;;29.23;16.47;;;-5.80;99.90;;;;;;4992769;28;20379;-82
2022/03/08 06:14:41;;;;;;;31.37;16.53;;;-5.60;99.90;;;;;;4994160;28;20032;-81
2022/03/08 06:17:07;;;;;;;38.30;15.50;;;-5.40;99.90;;;;;;4992781;28;20104;-82
2022/03/08 06:19:33;;;;;;;30.23;16.47;;;-5.20;99.90;;;;;;4993615;28;20037;-81
2022/03/08 06:21:59;;;;;;;27.10;16.13;;;-5.10;99.90;;;;;;4993739;28;20026;-82
2022/03/08 06:24:28;;;;;;;32.70;17.43;;;-5.00;99.90;;;;;;4993816;28;20062;-85
2022/03/08 06:26:54;;;;;;;27.17;15.87;;;-4.80;99.90;;;;;;4985953;28;20022;-79
2022/03/08 06:29:20;;;;;;;31.80;17.90;;;-4.80;99.90;;;;;;4991569;28;20376;-79
2022/03/08 06:31:45;;;;;;;25.80;15.70;;;-4.70;99.90;;;;;;4991307;28;20383;-79
2022/03/08 06:34:11;;;;;;;27.20;16.63;;;-4.60;99.90;;;;;;4988185;28;20034;-79
2022/03/08 06:36:38;;;;;;;25.27;14.40;;;-4.50;99.90;;;;;;4988008;28;20037;-80
2022/03/08 06:39:04;;;;;;;25.33;14.93;;;-4.40;99.90;;;;;;4990631;28;20034;-80
2022/03/08 06:41:29;;;;;;;32.50;15.13;;;-4.40;99.90;;;;;;4988649;28;20037;-80
2022/03/08 06:43:57;;;;;;;27.43;15.03;;;-4.30;99.90;;;;;;4971494;28;20045;-80
2022/03/08 06:46:23;;;;;;;23.23;14.23;;;-4.20;99.90;;;;;;4965195;28;20439;-80
2022/03/08 06:48:48;;;;;;;24.13;14.40;;;-4.10;99.90;;;;;;4969074;28;20030;-80
2022/03/08 06:51:14;;;;;;;33.87;17.83;;;-4.10;99.90;;;;;;4975481;28;20038;-81
2022/03/08 06:53:40;;;;;;;23.17;14.47;;;-4.00;99.90;;;;;;4959049;28;20103;-81
2022/03/08 06:56:05;;;;;;;26.73;13.37;;;-4.00;99.90;;;;;;4980325;28;20039;-81
2022/03/08 06:58:31;;;;;;;22.67;13.53;;;-3.90;99.90;;;;;;4979484;28;20031;-81
2022/03/08 07:00:57;;;;;;;25.13;13.10;;;-3.80;99.90;;;;;;4988837;28;20045;-84
2022/03/08 07:03:27;;;;;;;26.13;13.80;;;-3.70;99.90;;;;;;4989744;28;20088;-84
2022/03/08 07:05:54;;;;;;;29.07;13.07;;;-3.60;99.90;;;;;;4990730;28;20050;-84
2022/03/08 07:08:20;;;;;;;25.97;14.00;;;-3.50;99.90;;;;;;4991814;28;20081;-76
2022/03/08 07:10:45;;;;;;;22.80;13.43;;;-3.50;99.90;;;;;;4992228;28;20049;-81
2022/03/08 07:13:11;;;;;;;26.43;13.17;;;-3.40;99.90;;;;;;4989995;28;20055;-81
2022/03/08 07:15:38;;;;;;;27.80;13.07;;;-3.30;99.90;;;;;;4986603;28;20085;-78
2022/03/08 07:18:04;;;;;;;18.77;12.13;;;-3.20;99.90;;;;;;4992576;28;20030;-80
2022/03/08 07:20:29;;;;;;;18.10;11.23;;;-3.00;99.90;;;;;;4982975;28;20045;-80
2022/03/08 07:22:55;;;;;;;19.67;11.37;;;-2.80;99.90;;;;;;4986116;28;20022;-80
2022/03/08 07:25:20;;;;;;;20.57;12.23;;;-2.60;99.90;;;;;;4989275;28;20535;-80
2022/03/08 07:27:46;;;;;;;22.17;11.87;;;-2.60;99.90;;;;;;4989785;28;20367;-79
2022/03/08 07:30:12;;;;;;;20.17;11.80;;;-2.40;99.90;;;;;;4986045;28;20065;-79
2022/03/08 07:32:38;;;;;;;18.53;11.13;;;-2.40;99.90;;;;;;4987828;28;20466;-79
2022/03/08 07:35:05;;;;;;;17.33;11.60;;;-2.30;99.90;;;;;;4989425;28;20498;-80
2022/03/08 07:37:36;;;;;;;21.87;11.00;;;-2.00;99.90;;;;;;4987437;28;20054;-79
2022/03/08 07:40:04;;;;;;;21.33;11.00;;;-2.00;99.90;;;;;;4988300;28;20092;-79
2022/03/08 07:42:36;;;;;;;18.53;10.90;;;-1.80;99.90;;;;;;4987295;28;20034;-82
2022/03/08 07:45:03;;;;;;;18.30;10.53;;;-1.60;99.90;;;;;;4988271;28;20049;-81
2022/03/08 07:47:28;;;;;;;16.80;10.13;;;-1.30;99.90;;;;;;4988442;28;20030;-81
2022/03/08 07:49:54;;;;;;;18.73;11.23;;;-1.00;99.90;;;;;;4986249;28;20070;-80
2022/03/08 07:52:20;;;;;;;17.90;10.73;;;-0.80;99.90;;;;;;4988046;28;20034;-81
2022/03/08 07:54:45;;;;;;;16.50;10.40;;;-0.60;99.90;;;;;;4982698;28;20120;-81
2022/03/08 07:57:11;;;;;;;16.50;10.60;;;-0.40;99.90;;;;;;4987607;28;20030;-80
2022/03/08 07:59:36;;;;;;;16.03;10.90;;;-0.30;99.90;;;;;;4987393;28;20049;-80
2022/03/08 08:02:02;;;;;;;20.40;10.23;;;-0.20;99.90;;;;;;4969624;28;20026;-80
2022/03/08 08:04:29;;;;;;;16.63;10.43;;;0.10;99.90;;;;;;4969629;28;20177;-80
2022/03/08 08:06:55;;;;;;;15.93;9.83;;;0.50;99.90;;;;;;4985162;28;20057;-80
2022/03/08 08:09:20;;;;;;;16.90;10.03;;;0.70;99.90;;;;;;4988728;28;20458;-76
2022/03/08 08:11:46;;;;;;;14.00;9.07;;;0.80;99.90;;;;;;4987216;28;20110;-77
2022/03/08 08:14:12;;;;;;;19.03;10.23;;;0.90;99.90;;;;;;4982986;28;20054;-76
2022/03/08 08:16:38;;;;;;;15.00;10.03;;;0.90;99.90;;;;;;4989062;28;20475;-77
2022/03/08 08:19:04;;;;;;;12.83;9.63;;;1.00;99.90;;;;;;4993748;28;20029;-77
2022/03/08 08:21:32;;;;;;;14.47;9.97;;;1.00;99.90;;;;;;4989680;28;20113;-77
2022/03/08 08:24:00;;;;;;;18.83;10.17;;;1.10;99.90;;;;;;4988113;28;20037;-77
2022/03/08 08:26:28;;;;;;;16.70;10.13;;;1.20;99.90;;;;;;4981593;28;20045;-77
2022/03/08 08:28:54;;;;;;;18.60;9.77;;;1.20;99.90;;;;;;4982334;28;20030;-77
2022/03/08 08:31:20;;;;;;;16.87;9.97;;;1.30;99.90;;;;;;4988617;28;20037;-77
2022/03/08 08:33:46;;;;;;;15.67;9.67;;;1.40;99.90;;;;;;4984139;28;20041;-77
2022/03/08 08:36:12;;;;;;;14.50;9.20;;;1.40;99.90;;;;;;4972989;28;20026;-76
2022/03/08 08:38:38;;;;;;;13.37;9.00;;;1.50;99.90;;;;;;4985838;28;20158;-77
2022/03/08 08:41:04;;;;;;;15.97;9.60;;;1.60;99.90;;;;;;4987923;28;20030;-76
2022/03/08 08:43:29;;;;;;;13.27;8.73;;;1.70;99.90;;;;;;4987597;28;20026;-76
2022/03/08 08:45:55;;;;;;;12.47;8.63;;;1.70;99.90;;;;;;4983963;28;20038;-76
2022/03/08 08:48:22;;;;;;;19.17;9.57;;;2.00;99.90;;;;;;4988569;28;20068;-76
2022/03/08 08:50:47;;;;;;;14.80;8.07;;;2.10;99.90;;;;;;4980193;28;20443;-76
2022/03/08 08:53:13;;;;;;;16.23;8.37;;;2.40;99.90;;;;;;4987935;28;20026;-76
2022/03/08 08:55:39;;;;;;;12.70;8.20;;;2.50;99.90;;;;;;4972719;28;20026;-75
2022/03/08 08:58:05;;;;;;;13.07;7.77;;;2.50;99.90;;;;;;4986632;28;20038;-75
2022/03/08 09:00:31;;;;;;;11.70;8.47;;;2.90;99.90;;;;;;4985332;28;20073;-76
2022/03/08 09:02:57;;;;;;;13.70;8.33;;;2.90;99.90;;;;;;4985427;28;20468;-76
2022/03/08 09:05:23;;;;;;;14.80;8.37;;;2.90;99.90;;;;;;4972865;28;20026;-76
2022/03/08 09:07:49;;;;;;;14.87;8.07;;;3.00;99.90;;;;;;4984634;28;20128;-76
2022/03/08 09:10:16;;;;;;;11.93;8.67;;;3.20;99.90;;;;;;4975347;28;20137;-76
2022/03/08 09:12:49;;;;;;;13.00;8.27;;;3.50;99.90;;;;;;4990081;28;20387;-77
2022/03/08 09:15:15;;;;;;;10.03;7.83;;;3.50;99.90;;;;;;4976545;28;20036;-77
2022/03/08 09:17:41;;;;;;;11.40;7.20;;;3.60;99.90;;;;;;4985093;28;20044;-77
2022/03/08 09:20:07;;;;;;;11.47;8.00;;;4.00;99.90;;;;;;4984084;28;20041;-77
2022/03/08 09:22:33;;;;;;;13.37;8.30;;;4.30;99.90;;;;;;4989319;28;20040;-76
2022/03/08 09:24:58;;;;;;;12.37;8.17;;;4.40;99.90;;;;;;4979670;28;20101;-76
2022/03/08 09:27:24;;;;;;;12.33;7.37;;;4.30;99.90;;;;;;4981486;28;20034;-76
2022/03/08 09:29:50;;;;;;;14.77;7.90;;;4.40;99.90;;;;;;4990674;28;20030;-77
2022/03/08 09:32:16;;;;;;;13.20;6.63;;;4.70;99.90;;;;;;4984434;28;20038;-76
2022/03/08 09:34:42;;;;;;;10.50;7.10;;;4.90;99.70;;;;;;4987417;28;20038;-77
2022/03/08 09:37:08;;;;;;;12.27;7.40;;;5.20;98.60;;;;;;4984773;28;20057;-76
2022/03/08 09:39:37;;;;;;;10.20;6.50;;;5.50;97.40;;;;;;4990476;28;20519;-76
2022/03/08 09:42:03;;;;;;;8.97;5.87;;;5.50;95.30;;;;;;4982726;28;20042;-76
2022/03/08 09:44:30;;;;;;;9.87;6.13;;;5.80;94.80;;;;;;4981396;28;20102;-76
2022/03/08 09:46:55;;;;;;;13.77;6.80;;;6.10;94.20;;;;;;4984704;28;20037;-76
2022/03/08 09:49:21;;;;;;;13.17;5.67;;;6.20;93.50;;;;;;4987422;28;20042;-76
2022/03/08 09:51:47;;;;;;;10.67;6.23;;;6.30;92.40;;;;;;4986817;28;20034;-74
2022/03/08 09:54:13;;;;;;;10.20;5.57;;;6.30;92.20;;;;;;4986099;28;20482;-76
2022/03/08 09:56:39;;;;;;;8.23;5.73;;;6.30;90.80;;;;;;4986106;28;20424;-76
2022/03/08 09:59:04;;;;;;;9.07;6.17;;;6.40;90.70;;;;;;4984401;28;20052;-77
2022/03/08 10:01:30;;;;;;;8.27;5.60;;;6.60;90.50;;;;;;4983561;28;20141;-76
2022/03/08 10:03:57;;;;;;;10.17;6.00;;;6.70;89.10;;;;;;4972465;28;20027;-76
2022/03/08 10:06:23;;;;;;;7.53;5.30;;;7.00;87.40;;;;;;4981692;28;20030;-77
2022/03/08 10:08:48;;;;;;;18.20;6.13;;;6.90;86.10;;;;;;4984751;28;20046;-77
2022/03/08 10:11:14;;;;;;;6.87;5.03;;;7.10;84.60;;;;;;4982425;28;20042;-81
2022/03/08 10:13:58;;;;;;;10.80;5.93;;;7.10;83.80;;;;;;4982060;28;20499;-81
2022/03/08 10:16:29;;;;;;;9.60;5.17;;;7.30;83.00;;;;;;4977591;28;20061;-81
2022/03/08 10:18:56;;;;;;;8.87;5.10;;;7.20;81.10;;;;;;4976870;28;20129;-81
2022/03/08 10:21:25;;;;;;;14.47;5.40;;;7.30;81.30;;;;;;4985250;28;20065;-81
2022/03/08 10:23:52;;;;;;;8.53;5.13;;;7.30;79.80;;;;;;4984309;28;20072;-81
2022/03/08 10:26:18;;;;;;;14.03;4.97;;;7.60;78.30;;;;;;4981118;28;20026;-81
2022/03/08 10:28:49;;;;;;;8.47;4.77;;;7.60;76.70;;;;;;4984929;28;21272;-76
2022/03/08 10:31:16;;;;;;;8.97;5.10;;;7.80;76.00;;;;;;4984240;28;20511;-76
2022/03/08 10:33:42;;;;;;;6.97;4.27;;;7.80;76.40;;;;;;4982724;28;20447;-77
2022/03/08 10:36:22;;;;;;;6.67;4.70;;;7.80;75.20;;;;;;4986223;28;20030;-76
2022/03/08 10:39:10;;;;;;;7.47;4.80;;;7.70;75.00;;;;;;4981508;28;20049;-76
2022/03/08 10:41:57;;;;;;;11.67;4.10;;;7.80;73.50;;;;;;4980890;28;20022;-75
2022/03/08 10:44:33;;;;;;;8.50;4.70;;;8.10;72.70;;;;;;4964156;28;20027;-75
2022/03/08 10:47:05;;;;;;;13.00;4.50;;;8.20;70.60;;;;;;4970079;28;20026;-75
2022/03/08 10:49:32;;;;;;;6.47;4.30;;;8.20;70.40;;;;;;4981815;28;20723;-79
2022/03/08 10:52:03;;;;;;;9.10;5.30;;;8.10;71.20;;;;;;4982576;28;20394;-80
2022/03/08 10:54:30;;;;;;;6.07;4.53;;;8.20;71.20;;;;;;4981405;28;20038;-79
2022/03/08 10:56:56;;;;;;;8.37;4.60;;;7.80;71.30;;;;;;4977929;28;20460;-79
2022/03/08 10:59:22;;;;;;;9.53;4.60;;;8.10;71.80;;;;;;4980456;28;20035;-79
2022/03/08 11:01:47;;;;;;;6.70;4.33;;;8.10;71.20;;;;;;4978182;28;20094;-79
2022/03/08 11:04:21;;;;;;;7.80;5.20;;;8.10;70.70;;;;;;4980361;28;20035;-79
2022/03/08 11:06:50;;;;;;;10.50;4.80;;;8.10;69.60;;;;;;4980209;28;20112;-78
2022/03/08 11:09:20;;;;;;;11.17;4.37;;;8.30;69.70;;;;;;4979244;28;20069;-79
2022/03/08 11:11:46;;;;;;;9.77;4.63;;;8.60;70.60;;;;;;4976596;28;20134;-79
2022/03/08 11:14:12;;;;;;;9.63;4.57;;;8.60;67.60;;;;;;4978145;28;20149;-79
2022/03/08 11:16:39;;;;;;;5.80;4.47;;;8.50;67.70;;;;;;4957357;28;20034;-80
2022/03/08 11:19:05;;;;;;;7.83;4.10;;;8.50;67.60;;;;;;4964261;28;20034;-79
2022/03/08 11:21:33;;;;;;;7.63;4.97;;;8.50;65.70;;;;;;4985143;28;20093;-79
2022/03/08 11:24:02;;;;;;;6.93;4.53;;;8.60;67.60;;;;;;4983885;28;20166;-75
2022/03/08 11:26:29;;;;;;;6.17;4.10;;;8.80;66.20;;;;;;4987095;28;20101;-81
2022/03/08 11:28:56;;;;;;;8.73;3.97;;;8.90;65.10;;;;;;4993057;28;20037;-75
2022/03/08 11:31:28;;;;;;;9.27;4.20;;;9.10;63.90;;;;;;4992844;28;20150;-68
2022/03/08 11:34:12;;;;;;;6.67;3.73;;;9.10;62.50;;;;;;4992876;28;20034;-78
2022/03/08 11:36:46;;;;;;;6.67;3.80;;;9.00;62.50;;;;;;4975822;28;20047;-78
2022/03/08 11:39:14;;;;;;;7.57;4.40;;;8.70;63.00;;;;;;4975651;28;20031;-79
2022/03/08 11:41:41;;;;;;;9.83;4.03;;;8.50;63.00;;;;;;4991588;28;20068;-79
2022/03/08 11:44:07;;;;;;;13.77;3.80;;;8.40;65.40;;;;;;4990481;28;20068;-80
2022/03/08 11:46:33;;;;;;;8.43;4.20;;;8.70;63.30;;;;;;4992338;28;20023;-81
2022/03/08 11:49:02;;;;;;;5.23;3.50;;;9.00;62.40;;;;;;4985828;28;20035;-78
2022/03/08 11:51:30;;;;;;;6.50;3.70;;;9.10;60.80;;;;;;4966456;28;20135;-78
2022/03/08 11:54:05;;;;;;;5.80;4.10;;;9.20;60.60;;;;;;4984789;28;20471;-78
2022/03/08 11:56:51;;;;;;;12.50;6.23;;;9.40;60.30;;;;;;4983107;28;20110;-78
2022/03/08 11:59:17;;;;;;;10.83;5.00;;;9.60;59.60;;;;;;4989271;28;20030;-74
2022/03/08 12:01:43;;;;;;;8.27;4.83;;;9.60;60.30;;;;;;4993226;28;20534;-74
2022/03/08 12:04:12;;;;;;;9.45;5.13;;;9.80;60.00;;;;;;4982256;28;20027;-74
2022/03/08 12:06:39;;;;;;;14.63;6.82;;;10.20;59.60;;;;;;4985360;28;20452;-74
2022/03/08 12:09:18;;;;;;;11.48;5.10;;;10.40;58.20;;;;;;4988610;28;20391;-74
2022/03/08 12:11:45;;;;;;;8.30;4.82;;;10.50;57.80;;;;;;4990755;28;20426;-74
2022/03/08 12:14:13;;;;;;;8.95;4.63;;;10.60;58.70;;;;;;4982061;28;20030;-78
2022/03/08 12:16:42;;;;;;;7.40;4.90;;;10.50;58.70;;;;;;4980946;28;20790;-79
2022/03/08 12:19:09;;;;;;;6.35;4.90;;;10.10;59.20;;;;;;4984258;28;20038;-79
2022/03/08 12:21:37;;;;;;;7.32;4.63;;;9.80;58.70;;;;;;4982030;28;20530;-80
2022/03/08 12:24:09;;;;;;;9.18;4.70;;;9.90;59.50;;;;;;4978890;28;20150;-80
2022/03/08 12:26:54;;;;;;;7.45;4.30;;;10.00;58.80;;;;;;4981107;28;20030;-80
2022/03/08 12:29:36;;;;;;;;;;;10.00;59.20;;;;;;4983695;28;20553;-77
2022/03/08 12:32:03;;;;;;;9.20;6.35;;;9.90;59.80;;;;;;4983573;28;20473;-78
2022/03/08 12:34:42;;;;;;;8.65;4.70;;;10.00;59.40;;;;;;4981300;28;20089;-79